Time;durP1;ratioP1;P1;durP2;ratioP2;P2;SDS_P1;SDS_P2;PMS_P1;PMS_P2;Temp;Humidity;BMP_temperature;BMP_pressure;BME280_temperature;BME280_humidity;BME280_pressure;Samples;Min_cycle;Max_cycle;Signal;HPM_P1;HPM_P2
2021/08/20 00:00:00;;;;;;;5.87;4.30;;;;;;;14.68;91.06;100846.56;697305;28;1642;-57
2021/08/20 00:00:20;;;;;;;6.38;4.45;;;;;;;14.68;90.90;100846.56;699440;28;1193;-55
2021/08/20 00:00:41;;;;;;;5.70;4.63;;;;;;;14.64;91.08;100845.75;700110;28;4643;-56
2021/08/20 00:01:01;;;;;;;6.10;4.60;;;;;;;14.65;91.10;100842.22;700221;28;1232;-56
2021/08/20 00:01:22;;;;;;;6.18;4.38;;;;;;;14.71;91.01;100846.50;702858;28;1067;-57
2021/08/20 00:01:42;;;;;;;5.83;4.50;;;;;;;14.72;90.70;100843.84;703445;28;982;-56
2021/08/20 00:02:03;;;;;;;5.93;4.37;;;;;;;14.75;90.49;100849.03;701023;28;1618;-58
2021/08/20 00:02:23;;;;;;;6.20;4.50;;;;;;;14.74;90.45;100849.06;702994;28;3415;-58
2021/08/20 00:02:43;;;;;;;5.93;4.30;;;;;;;14.72;90.51;100845.63;702311;28;4420;-55
2021/08/20 00:03:04;;;;;;;7.28;4.50;;;;;;;14.69;90.63;100843.03;702658;28;1968;-55
2021/08/20 00:03:24;;;;;;;7.27;4.70;;;;;;;14.66;90.87;100846.56;700626;28;1324;-56
2021/08/20 00:03:45;;;;;;;6.70;4.57;;;;;;;14.66;91.08;100848.34;699973;28;4495;-56
2021/08/20 00:04:06;;;;;;;6.60;4.70;;;;;;;14.64;90.98;100849.22;700440;28;1069;-55
2021/08/20 00:04:27;;;;;;;6.78;4.80;;;;;;;14.64;90.54;100857.13;700797;28;1689;-56
2021/08/20 00:04:47;;;;;;;6.23;4.80;;;;;;;14.62;91.00;100851.03;700933;28;1436;-59
2021/08/20 00:05:08;;;;;;;6.82;4.80;;;;;;;14.64;90.70;100851.88;699379;28;1345;-55
2021/08/20 00:05:29;;;;;;;6.80;5.20;;;;;;;14.62;90.93;100843.16;700560;28;3951;-57
2021/08/20 00:05:49;;;;;;;6.60;5.20;;;;;;;14.61;90.99;100848.41;700563;28;3669;-53
2021/08/20 00:06:09;;;;;;;6.20;4.73;;;;;;;14.60;91.19;100855.41;700022;28;1775;-54
2021/08/20 00:06:30;;;;;;;6.77;4.73;;;;;;;14.57;91.47;100850.22;700553;28;1467;-57
2021/08/20 00:06:50;;;;;;;6.40;4.60;;;;;;;14.60;91.28;100850.16;700204;28;5458;-55
2021/08/20 00:07:10;;;;;;;5.70;4.50;;;;;;;14.60;90.92;100850.16;699982;28;1039;-57
2021/08/20 00:07:31;;;;;;;6.25;4.50;;;;;;;14.60;90.93;100854.56;700617;28;1233;-56
2021/08/20 00:07:51;;;;;;;6.73;4.70;;;;;;;14.61;90.79;100851.03;700834;28;1713;-57
2021/08/20 00:08:12;;;;;;;6.65;4.82;;;;;;;14.65;90.71;100858.00;700269;28;1758;-56
2021/08/20 00:08:32;;;;;;;5.97;4.50;;;;;;;14.67;90.67;100852.72;699855;28;4820;-57
2021/08/20 00:08:53;;;;;;;6.70;4.57;;;;;;;14.64;90.76;100854.50;700553;28;1810;-57
2021/08/20 00:09:13;;;;;;;6.10;4.82;;;;;;;14.60;91.22;100849.28;700326;28;1549;-54
2021/08/20 00:09:33;;;;;;;7.47;4.90;;;;;;;14.55;91.56;100852.03;700897;28;1792;-56
2021/08/20 00:09:55;;;;;;;7.00;4.90;;;;;;;14.51;91.25;100852.97;699986;28;5798;-57
2021/08/20 00:10:16;;;;;;;6.35;5.00;;;;;;;14.49;91.30;100852.13;700164;28;1445;-56
2021/08/20 00:10:37;;;;;;;6.10;4.70;;;;;;;14.47;91.34;100854.78;700566;28;1601;-55
2021/08/20 00:10:57;;;;;;;6.80;4.97;;;;;;;14.46;91.72;100857.44;701105;28;1261;-57
2021/08/20 00:11:17;;;;;;;6.90;4.70;;;;;;;14.45;91.89;100851.31;699807;28;4091;-57
2021/08/20 00:11:39;;;;;;;6.17;4.70;;;;;;;14.50;91.56;100853.00;700344;28;4565;-55
2021/08/20 00:12:01;;;;;;;6.60;4.70;;;;;;;14.51;91.48;100855.59;700431;28;2049;-56
2021/08/20 00:12:22;;;;;;;8.00;4.82;;;;;;;14.54;91.23;100855.53;700828;28;1559;-54
2021/08/20 00:12:42;;;;;;;7.07;4.63;;;;;;;14.54;91.16;100849.38;699782;28;4316;-55
2021/08/20 00:13:03;;;;;;;7.10;4.60;;;;;;;14.58;91.18;100851.06;699786;28;1647;-55
2021/08/20 00:13:23;;;;;;;6.77;4.50;;;;;;;14.61;90.88;100851.91;701253;28;1060;-58
2021/08/20 00:13:43;;;;;;;6.80;4.63;;;;;;;14.57;90.70;100849.34;701061;28;1677;-55
2021/08/20 00:14:07;;;;;;;6.70;4.90;;;;;;;14.52;91.08;100849.44;700775;28;1312;-53
2021/08/20 00:14:28;;;;;;;6.28;5.00;;;;;;;14.50;91.25;100853.88;700114;28;4257;-57
2021/08/20 00:14:48;;;;;;;6.03;4.75;;;;;;;14.55;91.28;100856.41;700321;28;1924;-56
2021/08/20 00:15:10;;;;;;;6.67;4.70;;;;;;;14.60;91.06;100849.28;698167;28;1690;-56
2021/08/20 00:15:31;;;;;;;6.75;4.75;;;;;;;14.62;90.75;100858.94;699742;28;1305;-57
2021/08/20 00:15:51;;;;;;;6.80;4.90;;;;;;;14.59;91.26;100856.34;698369;28;4561;-54
2021/08/20 00:16:12;;;;;;;5.87;4.90;;;;;;;14.53;91.33;100855.56;698909;28;1587;-55
2021/08/20 00:16:32;;;;;;;7.35;5.20;;;;;;;14.50;91.62;100858.25;699959;28;2909;-53
2021/08/20 00:16:52;;;;;;;7.00;5.20;;;;;;;14.46;92.01;100852.19;700202;28;1767;-58
2021/08/20 00:17:13;;;;;;;5.90;4.80;;;;;;;14.43;92.03;100850.47;699946;28;1403;-57
2021/08/20 00:17:34;;;;;;;6.60;4.70;;;;;;;14.46;91.61;100847.78;700178;28;1502;-57
2021/08/20 00:17:54;;;;;;;6.77;5.10;;;;;;;14.49;91.43;100849.50;700257;28;1410;-56
2021/08/20 00:18:14;;;;;;;6.63;4.80;;;;;;;14.47;91.37;100851.28;700516;28;1517;-53
2021/08/20 00:18:35;;;;;;;6.50;4.60;;;;;;;14.43;91.83;100853.09;701010;28;810;-54
2021/08/20 00:18:55;;;;;;;7.03;4.70;;;;;;;14.41;91.93;100852.28;699252;28;4447;-55
2021/08/20 00:19:15;;;;;;;6.18;4.72;;;;;;;14.39;91.95;100847.94;699833;28;1295;-56
2021/08/20 00:19:36;;;;;;;5.53;4.70;;;;;;;14.35;92.48;100851.50;700687;28;1576;-56
2021/08/20 00:19:57;;;;;;;6.38;5.00;;;;;;;14.35;92.48;100854.13;699173;28;1890;-57
2021/08/20 00:20:17;;;;;;;7.40;4.93;;;;;;;14.36;92.29;100858.47;698340;28;1696;-56
2021/08/20 00:20:38;;;;;;;6.33;5.00;;;;;;;14.33;92.46;100850.66;699464;28;1371;-57
2021/08/20 00:20:58;;;;;;;6.77;5.07;;;;;;;14.35;92.37;100848.88;698765;28;1379;-55
2021/08/20 00:21:18;;;;;;;6.70;4.68;;;;;;;14.40;92.17;100842.63;700348;28;1612;-57
2021/08/20 00:21:39;;;;;;;6.10;4.87;;;;;;;14.44;91.81;100849.59;699480;28;4548;-54
2021/08/20 00:22:00;;;;;;;7.35;4.97;;;;;;;14.50;91.58;100848.59;702094;28;1453;-56
2021/08/20 00:22:22;;;;;;;6.10;4.75;;;;;;;14.53;91.38;100845.06;702657;28;1051;-56
2021/08/20 00:22:42;;;;;;;6.90;4.55;;;;;;;14.56;90.93;100848.47;703556;28;1905;-55
2021/08/20 00:23:03;;;;;;;7.60;4.73;;;;;;;14.57;90.78;100852.84;698854;28;1355;-54
2021/08/20 00:23:24;;;;;;;6.23;4.90;;;;;;;14.54;91.67;100846.75;699294;28;4127;-56
2021/08/20 00:23:44;;;;;;;6.65;4.90;;;;;;;14.47;91.35;100852.16;698657;28;1954;-56
2021/08/20 00:24:05;;;;;;;6.77;4.60;;;;;;;14.46;91.48;100844.28;697206;28;1441;-56
2021/08/20 00:24:26;;;;;;;7.68;4.80;;;;;;;14.43;91.75;100847.84;697557;28;1615;-57
2021/08/20 00:24:46;;;;;;;7.20;4.80;;;;;;;14.38;92.14;100848.81;696327;28;4538;-56
2021/08/20 00:25:07;;;;;;;7.60;4.97;;;;;;;14.33;92.55;100848.91;699203;28;1621;-54
2021/08/20 00:25:28;;;;;;;6.72;5.00;;;;;;;14.30;92.43;100841.03;699136;28;1554;-56
2021/08/20 00:25:48;;;;;;;6.90;5.00;;;;;;;14.32;92.38;100847.16;701102;28;1750;-54
2021/08/20 00:26:08;;;;;;;6.90;4.83;;;;;;;14.38;92.02;100849.66;700673;28;879;-55
2021/08/20 00:26:28;;;;;;;6.97;4.80;;;;;;;14.39;92.37;100850.56;701559;28;895;-55
2021/08/20 00:26:49;;;;;;;7.60;4.97;;;;;;;14.35;92.27;100852.38;701041;28;1545;-56
2021/08/20 00:27:09;;;;;;;6.90;4.87;;;;;;;14.36;91.93;100847.97;697611;28;1171;-55
2021/08/20 00:27:30;;;;;;;6.85;4.80;;;;;;;14.39;92.01;100851.41;697584;28;935;-54
2021/08/20 00:27:50;;;;;;;5.97;4.53;;;;;;;14.46;91.76;100852.19;694942;28;4748;-54
2021/08/20 00:28:11;;;;;;;6.00;4.70;;;;;;;14.43;91.95;100844.34;694641;28;2007;-55
2021/08/20 00:28:31;;;;;;;6.67;5.03;;;;;;;14.37;92.34;100850.59;697020;28;1437;-56
2021/08/20 00:28:51;;;;;;;7.30;5.10;;;;;;;14.35;92.18;100848.88;697642;28;1734;-58
2021/08/20 00:29:12;;;;;;;6.83;4.97;;;;;;;14.34;91.99;100848.00;699181;28;1681;-57
2021/08/20 00:29:32;;;;;;;6.38;4.85;;;;;;;14.41;91.93;100859.28;697359;28;1543;-56
2021/08/20 00:29:53;;;;;;;6.90;4.80;;;;;;;14.43;91.77;100852.25;695158;28;1384;-56
2021/08/20 00:30:13;;;;;;;7.00;4.70;;;;;;;14.41;91.81;100854.91;695032;28;1466;-56
2021/08/20 00:30:34;;;;;;;7.47;5.10;;;;;;;14.37;92.31;100847.06;695247;28;1820;-53
2021/08/20 00:30:55;;;;;;;7.55;5.10;;;;;;;14.30;92.43;100847.19;694976;28;4526;-56
2021/08/20 00:31:15;;;;;;;6.32;4.85;;;;;;;14.24;92.34;100855.16;692193;28;1184;-57
2021/08/20 00:31:35;;;;;;;5.87;4.50;;;;;;;14.25;92.47;100850.81;695606;28;1343;-54
2021/08/20 00:31:56;;;;;;;6.30;4.70;;;;;;;14.25;92.95;100842.91;697464;28;911;-55
2021/08/20 00:32:16;;;;;;;6.30;4.73;;;;;;;14.26;92.59;100849.88;694535;28;4309;-56
2021/08/20 00:32:37;;;;;;;6.60;4.78;;;;;;;14.29;92.52;100849.84;692616;28;2015;-52
2021/08/20 00:32:58;;;;;;;7.18;4.90;;;;;;;14.30;92.79;100841.03;694816;28;2009;-55
2021/08/20 00:33:18;;;;;;;7.17;5.00;;;;;;;14.29;92.78;100850.72;694621;28;1650;-56
2021/08/20 00:33:39;;;;;;;7.22;4.80;;;;;;;14.27;92.99;100843.75;691724;28;4344;-55
2021/08/20 00:33:59;;;;;;;6.83;5.00;;;;;;;14.24;93.15;100849.91;692212;28;1296;-57
2021/08/20 00:34:20;;;;;;;6.63;5.18;;;;;;;14.26;92.95;100848.16;692481;28;1710;-55
2021/08/20 00:34:40;;;;;;;7.07;5.00;;;;;;;14.28;93.03;100848.09;695328;28;1681;-55
2021/08/20 00:35:01;;;;;;;7.20;5.03;;;;;;;14.23;92.91;100850.84;695579;28;867;-55
2021/08/20 00:35:22;;;;;;;7.05;4.90;;;;;;;14.25;92.63;100843.78;695080;28;1835;-56
2021/08/20 00:35:43;;;;;;;7.30;4.88;;;;;;;14.25;92.78;100848.16;698130;28;875;-54
2021/08/20 00:36:04;;;;;;;7.07;5.07;;;;;;;14.25;92.49;100854.28;695496;28;1026;-57
2021/08/20 00:36:24;;;;;;;6.18;4.90;;;;;;;14.25;92.71;100851.66;697460;28;986;-55
2021/08/20 00:36:45;;;;;;;6.82;5.10;;;;;;;14.23;93.41;100850.84;696226;28;4574;-54
2021/08/20 00:37:08;;;;;;;6.53;5.10;;;;;;;14.21;93.12;100849.97;695385;28;2015;-57
2021/08/20 00:37:29;;;;;;;6.30;5.00;;;;;;;14.22;92.69;100848.19;694883;28;1634;-57
2021/08/20 00:37:49;;;;;;;6.60;5.07;;;;;;;14.25;92.97;100853.44;694229;28;896;-57
2021/08/20 00:38:11;;;;;;;6.30;4.80;;;;;;;14.26;92.77;100850.78;694444;28;1739;-55
2021/08/20 00:38:40;;;;;;;6.63;4.90;;;;;;;14.26;92.70;100845.50;694841;28;1318;-55
2021/08/20 00:39:00;;;;;;;7.03;5.32;;;;;;;14.28;92.58;100846.34;692150;28;3708;-57
2021/08/20 00:39:24;;;;;;;7.10;5.10;;;;;;;14.25;92.78;100854.28;693339;28;3643;-54
2021/08/20 00:39:45;;;;;;;6.45;4.72;;;;;;;14.24;93.22;100847.28;695925;28;4793;-52
2021/08/20 00:40:06;;;;;;;6.18;5.03;;;;;;;14.23;93.45;100844.69;697589;28;1698;-56
2021/08/20 00:40:27;;;;;;;6.75;5.43;;;;;;;14.20;93.64;100845.59;697421;28;1741;-53
2021/08/20 00:40:47;;;;;;;6.22;5.10;;;;;;;14.19;93.47;100849.16;699044;28;1243;-55
2021/08/20 00:41:10;;;;;;;6.97;4.95;;;;;;;14.18;93.30;100851.78;698458;28;1337;-55
2021/08/20 00:41:31;;;;;;;7.55;4.93;;;;;;;14.21;93.00;100844.72;700764;28;1357;-54
2021/08/20 00:41:52;;;;;;;5.97;4.78;;;;;;;14.21;92.96;100851.75;700182;28;1826;-57
2021/08/20 00:42:12;;;;;;;6.10;4.67;;;;;;;14.27;92.59;100852.50;700777;28;1394;-54
2021/08/20 00:42:34;;;;;;;5.60;4.50;;;;;;;14.36;92.18;100848.84;697713;28;4617;-58
2021/08/20 00:42:55;;;;;;;6.35;4.70;;;;;;;14.38;91.91;100849.66;698852;28;4388;-56
2021/08/20 00:43:15;;;;;;;7.55;4.78;;;;;;;14.39;92.01;100847.94;697322;28;1601;-56
2021/08/20 00:43:37;;;;;;;8.20;4.80;;;;;;;14.34;92.08;100852.41;697545;28;1481;-57
2021/08/20 00:43:59;;;;;;;7.00;5.00;;;;;;;14.26;92.25;100848.16;697143;28;1197;-55
2021/08/20 00:44:20;;;;;;;7.47;5.50;;;;;;;14.20;92.31;100850.84;697627;28;1952;-57
2021/08/20 00:44:40;;;;;;;7.40;5.28;;;;;;;14.19;92.31;100849.16;698631;28;1931;-56
2021/08/20 00:45:01;;;;;;;6.67;4.80;;;;;;;14.23;92.32;100844.69;698967;28;1586;-55
2021/08/20 00:45:21;;;;;;;6.80;5.15;;;;;;;14.21;92.40;100849.97;700212;28;3715;-58
2021/08/20 00:45:55;;;;;;;6.80;5.27;;;;;;;14.16;92.76;100848.31;700128;28;4441;-56
2021/08/20 00:46:15;;;;;;;6.95;5.43;;;;;;;14.13;92.69;100843.97;700289;28;1205;-56
2021/08/20 00:46:36;;;;;;;7.30;5.57;;;;;;;14.12;92.57;100842.22;701210;28;1031;-53
2021/08/20 00:46:56;;;;;;;7.00;5.43;;;;;;;14.11;92.96;100849.25;700609;28;1613;-55
2021/08/20 00:47:17;;;;;;;6.57;5.25;;;;;;;14.12;93.21;100855.38;700643;28;1226;-56
2021/08/20 00:47:39;;;;;;;6.72;5.25;;;;;;;14.09;93.58;100853.66;701094;28;1221;-55
2021/08/20 00:47:59;;;;;;;6.43;5.20;;;;;;;14.09;93.73;100847.53;700473;28;1299;-55
2021/08/20 00:48:22;;;;;;;7.05;5.25;;;;;;;14.10;93.60;100847.50;700761;28;4447;-57
2021/08/20 00:48:42;;;;;;;6.73;5.30;;;;;;;14.11;93.41;100841.38;697968;28;4451;-55
2021/08/20 00:49:03;;;;;;;7.13;5.30;;;;;;;14.10;93.55;100849.28;697607;28;2168;-53
2021/08/20 00:49:23;;;;;;;7.13;5.00;;;;;;;14.08;93.66;100849.31;697671;28;1985;-52
2021/08/20 00:49:46;;;;;;;6.82;5.10;;;;;;;14.11;93.34;100848.41;698113;28;1516;-55
2021/08/20 00:50:08;;;;;;;6.72;5.15;;;;;;;14.14;93.43;100846.56;697235;28;1269;-55
2021/08/20 00:50:30;;;;;;;7.15;5.22;;;;;;;14.12;93.92;100844.84;698328;28;1575;-54
2021/08/20 00:51:01;;;;;;;8.30;5.55;;;;;;;14.07;93.46;100849.34;697176;28;1107;-54
2021/08/20 00:51:24;;;;;;;7.30;5.53;;;;;;;14.08;93.69;100848.44;694260;28;4197;-56
2021/08/20 00:51:45;;;;;;;6.85;5.20;;;;;;;14.10;93.53;100849.28;694076;28;4640;-53
2021/08/20 00:52:05;;;;;;;6.43;5.10;;;;;;;14.13;93.58;100854.50;694205;28;1517;-54
2021/08/20 00:52:26;;;;;;;6.10;4.93;;;;;;;14.17;93.24;100844.81;697317;28;1129;-57
2021/08/20 00:52:47;;;;;;;6.32;5.10;;;;;;;14.16;93.96;100848.31;696745;28;1464;-57
2021/08/20 00:53:10;;;;;;;8.80;5.45;;;;;;;14.12;93.51;100844.84;697819;28;1350;-52
2021/08/20 00:53:31;;;;;;;7.90;5.28;;;;;;;14.09;93.19;100848.41;697444;28;1496;-54
2021/08/20 00:53:54;;;;;;;8.02;5.10;;;;;;;14.08;93.13;100851.06;695520;28;1080;-55
2021/08/20 00:54:18;;;;;;;7.10;5.10;;;;;;;14.11;92.63;100853.66;694001;28;3207;-56
2021/08/20 00:54:39;;;;;;;6.32;5.00;;;;;;;14.17;92.65;100856.16;696524;28;4522;-56
2021/08/20 00:55:00;;;;;;;6.53;5.00;;;;;;;14.18;93.33;100852.66;697647;28;2031;-52
2021/08/20 00:55:23;;;;;;;7.32;4.88;;;;;;;14.12;93.30;100856.25;696171;28;1917;-57
2021/08/20 00:55:45;;;;;;;6.35;5.00;;;;;;;14.10;93.32;100854.53;699194;28;1294;-56
2021/08/20 00:56:06;;;;;;;6.35;5.13;;;;;;;14.07;93.32;100852.84;699970;28;1038;-54
2021/08/20 00:56:28;;;;;;;6.45;5.18;;;;;;;14.05;93.12;100852.00;700764;28;1504;-55
2021/08/20 00:56:49;;;;;;;6.57;5.10;;;;;;;14.05;93.21;100852.00;698990;28;1298;-57
2021/08/20 00:57:12;;;;;;;7.35;5.50;;;;;;;14.04;93.13;100852.00;700640;28;1140;-56
2021/08/20 00:57:32;;;;;;;7.13;5.40;;;;;;;14.05;93.20;100845.84;701937;28;4685;-55
2021/08/20 00:57:52;;;;;;;6.87;5.10;;;;;;;14.06;93.19;100848.47;702421;28;4443;-56
2021/08/20 00:58:13;;;;;;;7.03;4.90;;;;;;;14.12;93.07;100851.00;698968;28;2040;-55
2021/08/20 00:58:35;;;;;;;7.88;5.15;;;;;;;14.15;93.53;100847.47;700658;28;1664;-54
2021/08/20 00:58:55;;;;;;;8.30;5.47;;;;;;;14.14;93.23;100846.56;700253;28;1221;-54
2021/08/20 00:59:16;;;;;;;7.43;4.97;;;;;;;14.15;93.25;100847.47;698553;28;938;-56
2021/08/20 00:59:37;;;;;;;7.32;5.40;;;;;;;14.12;93.13;100848.38;698045;28;1662;-57
2021/08/20 01:00:01;;;;;;;6.82;5.20;;;;;;;14.07;93.42;100850.19;695345;28;1636;-53
2021/08/20 01:00:22;;;;;;;6.30;5.13;;;;;;;14.04;93.82;100841.50;697606;28;3836;-57
2021/08/20 01:00:43;;;;;;;6.32;5.13;;;;;;;14.02;93.44;100851.16;696845;28;4648;-55
2021/08/20 01:01:04;;;;;;;6.80;5.27;;;;;;;13.99;93.49;100845.97;697649;28;1483;-56
2021/08/20 01:01:25;;;;;;;7.40;5.45;;;;;;;13.99;93.34;100851.22;700499;28;1342;-56
2021/08/20 01:01:45;;;;;;;8.77;5.55;;;;;;;14.01;93.49;100841.53;701488;28;1714;-56
2021/08/20 01:02:07;;;;;;;6.85;5.05;;;;;;;14.00;93.95;100847.69;699722;28;1537;-54
2021/08/20 01:02:27;;;;;;;7.65;5.30;;;;;;;13.96;94.02;100852.13;697410;28;1792;-55
2021/08/20 01:02:47;;;;;;;6.50;5.10;;;;;;;13.95;93.79;100851.25;698039;28;1910;-52
2021/08/20 01:03:08;;;;;;;7.93;5.30;;;;;;;13.95;93.74;100843.38;697676;28;3857;-57
2021/08/20 01:03:31;;;;;;;7.82;5.38;;;;;;;13.95;93.74;100850.41;697797;28;4615;-57
2021/08/20 01:03:51;;;;;;;7.82;5.40;;;;;;;13.93;94.04;100855.69;695054;28;4501;-57
2021/08/20 01:04:11;;;;;;;8.13;5.50;;;;;;;13.96;94.19;100852.13;697853;28;1929;-56
2021/08/20 01:04:32;;;;;;;8.32;5.60;;;;;;;13.96;94.06;100852.13;698031;28;927;-57
2021/08/20 01:04:52;;;;;;;7.00;5.30;;;;;;;13.95;93.83;100845.13;698508;28;789;-54
2021/08/20 01:05:19;;;;;;;7.15;5.32;;;;;;;13.95;94.10;100850.41;697742;28;1262;-56
2021/08/20 01:05:39;;;;;;;7.55;5.30;;;;;;;13.94;94.12;100849.53;695183;28;1603;-54
2021/08/20 01:06:06;;;;;;;6.82;5.15;;;;;;;13.94;94.15;100854.78;695537;28;808;-55
2021/08/20 01:06:27;;;;;;;6.40;5.25;;;;;;;14.00;93.56;100855.56;695237;28;3083;-56
2021/08/20 01:06:48;;;;;;;6.40;5.13;;;;;;;14.02;93.86;100854.66;696638;28;4686;-55
2021/08/20 01:07:09;;;;;;;7.68;5.30;;;;;;;14.03;94.07;100850.28;699363;28;1430;-56
2021/08/20 01:07:36;;;;;;;6.82;5.15;;;;;;;14.00;93.89;100855.56;699232;28;870;-55
2021/08/20 01:07:56;;;;;;;6.93;5.22;;;;;;;13.98;93.69;100857.38;695697;28;1433;-57
2021/08/20 01:08:17;;;;;;;7.03;5.47;;;;;;;13.98;93.87;100857.38;694065;28;1411;-55
2021/08/20 01:08:38;;;;;;;6.82;5.53;;;;;;;13.96;93.88;100852.13;693610;28;1354;-55
2021/08/20 01:08:58;;;;;;;7.20;5.50;;;;;;;13.96;93.70;100855.63;692887;28;970;-55
2021/08/20 01:09:20;;;;;;;6.83;5.10;;;;;;;13.95;93.77;100855.66;694513;28;3647;-57
2021/08/20 01:09:41;;;;;;;6.53;5.43;;;;;;;13.94;93.56;100859.16;690960;28;4594;-55
2021/08/20 01:10:02;;;;;;;7.10;5.47;;;;;;;13.91;93.89;100857.44;692145;28;1385;-55
2021/08/20 01:10:22;;;;;;;8.27;5.60;;;;;;;13.88;94.05;100852.25;694072;28;1303;-57
2021/08/20 01:10:43;;;;;;;8.40;5.57;;;;;;;13.88;94.35;100860.13;696192;28;1598;-56
2021/08/20 01:11:06;;;;;;;7.20;5.50;;;;;;;13.87;94.11;100855.75;693397;28;1003;-57
2021/08/20 01:11:27;;;;;;;7.32;5.60;;;;;;;13.89;93.82;100866.28;694500;28;1208;-57
2021/08/20 01:11:50;;;;;;;6.85;5.22;;;;;;;13.93;93.53;100858.31;695106;28;1385;-55
2021/08/20 01:12:11;;;;;;;6.35;5.05;;;;;;;13.92;93.75;100856.56;695095;28;3127;-55
2021/08/20 01:12:35;;;;;;;8.85;5.40;;;;;;;13.93;93.72;100858.31;693762;28;1422;-52
2021/08/20 01:12:55;;;;;;;8.27;5.70;;;;;;;13.93;94.02;100855.69;694890;28;4525;-56
2021/08/20 01:13:17;;;;;;;8.68;5.72;;;;;;;13.93;94.41;100855.69;696419;28;990;-54
2021/08/20 01:13:42;;;;;;;7.90;5.30;;;;;;;13.93;93.88;100862.72;694674;28;1270;-55
2021/08/20 01:14:04;;;;;;;7.47;5.30;;;;;;;13.98;93.46;100855.59;694093;28;1382;-56
2021/08/20 01:14:35;;;;;;;7.50;4.80;;;;;;;14.05;93.28;100857.25;695565;28;1216;-57
2021/08/20 01:14:56;;;;;;;7.20;5.35;;;;;;;14.04;94.15;100857.25;694103;28;1292;-54
2021/08/20 01:15:16;;;;;;;7.77;5.57;;;;;;;14.03;93.97;100863.44;693829;28;4639;-56
2021/08/20 01:15:41;;;;;;;7.25;5.30;;;;;;;14.02;93.88;100865.16;697083;28;4506;-54
2021/08/20 01:16:03;;;;;;;7.80;5.03;;;;;;;14.00;93.99;100855.56;695095;28;1737;-57
2021/08/20 01:16:24;;;;;;;7.15;5.50;;;;;;;13.97;93.72;100861.78;693624;28;1222;-55
2021/08/20 01:16:46;;;;;;;7.45;5.40;;;;;;;13.99;93.41;100864.38;694016;28;1268;-58
2021/08/20 01:17:09;;;;;;;6.63;5.05;;;;;;;14.04;93.25;100862.50;693019;28;1290;-57
2021/08/20 01:17:31;;;;;;;6.60;4.75;;;;;;;14.10;92.89;100863.28;685460;28;1259;-55
2021/08/20 01:17:52;;;;;;;6.40;4.80;;;;;;;14.10;93.15;100860.66;688737;28;1411;-54
2021/08/20 01:18:23;;;;;;;6.97;4.95;;;;;;;14.07;93.33;100857.22;694699;28;4351;-55
2021/08/20 01:18:44;;;;;;;6.90;5.00;;;;;;;14.10;92.90;100860.66;694860;28;4489;-54
2021/08/20 01:19:04;;;;;;;7.70;5.23;;;;;;;14.13;92.83;100860.59;693014;28;1596;-55
2021/08/20 01:19:25;;;;;;;6.88;4.97;;;;;;;14.16;92.47;100859.69;693881;28;1354;-57
2021/08/20 01:19:47;;;;;;;6.30;4.57;;;;;;;14.20;92.27;100860.53;696061;28;1286;-56
2021/08/20 01:20:11;;;;;;;6.60;4.65;;;;;;;14.17;92.75;100860.56;692855;28;1515;-56
2021/08/20 01:20:31;;;;;;;7.78;4.95;;;;;;;14.15;92.90;100857.97;692856;28;843;-57
2021/08/20 01:20:54;;;;;;;7.63;5.10;;;;;;;14.13;92.98;100859.75;693873;28;1527;-56
2021/08/20 01:21:18;;;;;;;7.00;5.22;;;;;;;14.13;92.48;100859.75;692510;28;3973;-57
2021/08/20 01:21:39;;;;;;;7.22;4.68;;;;;;;14.16;92.38;100862.31;696109;28;4619;-55
2021/08/20 01:22:06;;;;;;;6.15;4.80;;;;;;;14.17;92.79;100855.31;695222;28;1761;-55
2021/08/20 01:22:27;;;;;;;7.82;5.20;;;;;;;14.13;92.73;100859.75;694884;28;1461;-55
2021/08/20 01:22:48;;;;;;;8.43;4.80;;;;;;;14.13;92.17;100859.75;692255;28;1973;-54
2021/08/20 01:23:10;;;;;;;6.88;4.90;;;;;;;14.12;92.46;100864.16;691416;28;1487;-54
2021/08/20 01:23:31;;;;;;;7.07;5.20;;;;;;;14.10;93.07;100859.81;692287;28;1620;-55
2021/08/20 01:23:57;;;;;;;6.70;5.18;;;;;;;14.07;92.98;100859.88;691902;28;1265;-57
2021/08/20 01:24:19;;;;;;;6.45;5.05;;;;;;;14.06;93.08;100863.38;692238;28;4158;-55
2021/08/20 01:24:44;;;;;;;8.13;5.20;;;;;;;14.05;92.93;100859.00;690473;28;4726;-56
2021/08/20 01:25:05;;;;;;;7.68;5.07;;;;;;;14.07;92.77;100860.72;693326;28;1321;-55
2021/08/20 01:25:26;;;;;;;7.60;4.90;;;;;;;14.13;92.45;100865.00;696329;28;1241;-56
2021/08/20 01:25:47;;;;;;;7.00;4.80;;;;;;;14.17;92.49;100866.69;696941;28;1221;-56
2021/08/20 01:26:07;;;;;;;7.55;4.95;;;;;;;14.14;92.88;100864.13;694430;28;1736;-55
2021/08/20 01:26:30;;;;;;;8.40;5.18;;;;;;;14.12;93.35;100863.25;693469;28;1260;-58
2021/08/20 01:26:51;;;;;;;6.80;4.90;;;;;;;14.10;93.69;100863.28;695058;28;1260;-53
2021/08/20 01:27:12;;;;;;;7.07;5.10;;;;;;;14.11;92.98;100859.78;693785;28;3825;-55
2021/08/20 01:27:35;;;;;;;7.38;4.80;;;;;;;14.11;93.12;100858.91;695051;28;1560;-54
2021/08/20 01:28:09;;;;;;;8.02;5.15;;;;;;;14.10;93.14;100857.16;691859;28;4671;-56
2021/08/20 01:28:31;;;;;;;7.88;4.97;;;;;;;14.14;92.65;100858.88;691700;28;1603;-54
2021/08/20 01:28:54;;;;;;;7.05;5.00;;;;;;;14.16;92.91;100861.47;694423;28;1215;-56
2021/08/20 01:29:16;;;;;;;7.45;5.30;;;;;;;14.12;93.17;100852.75;696342;28;1379;-57
2021/08/20 01:29:37;;;;;;;6.55;5.13;;;;;;;14.12;92.79;100858.00;695018;28;906;-56
2021/08/20 01:29:58;;;;;;;6.20;4.75;;;;;;;14.16;92.73;100864.94;690428;28;2637;-56
2021/08/20 01:30:18;;;;;;;5.90;4.87;;;;;;;14.17;92.61;100857.94;690686;28;3828;-56
2021/08/20 01:30:39;;;;;;;6.93;5.00;;;;;;;14.16;92.59;100859.69;690140;28;5465;-56
2021/08/20 01:31:04;;;;;;;7.25;4.70;;;;;;;14.18;92.25;100860.53;692109;28;1443;-57
2021/08/20 01:31:25;;;;;;;6.90;4.88;;;;;;;14.16;92.87;100861.47;693295;28;1259;-56
2021/08/20 01:31:49;;;;;;;6.55;4.75;;;;;;;14.11;92.94;100858.91;695859;28;1412;-55
2021/08/20 01:32:09;;;;;;;6.90;5.00;;;;;;;14.11;93.02;100856.28;696881;28;1339;-54
2021/08/20 01:32:31;;;;;;;6.68;5.15;;;;;;;14.07;93.25;100850.19;699103;28;1368;-56
2021/08/20 01:32:52;;;;;;;6.60;4.82;;;;;;;14.08;92.78;100865.09;700463;28;4325;-52
2021/08/20 01:33:12;;;;;;;7.17;4.87;;;;;;;14.08;92.47;100857.19;697927;28;4617;-54
2021/08/20 01:33:34;;;;;;;6.93;4.97;;;;;;;14.09;93.35;100848.41;699485;28;1580;-55
2021/08/20 01:33:55;;;;;;;7.28;5.10;;;;;;;14.04;93.68;100860.78;693875;28;4317;-56
2021/08/20 01:34:16;;;;;;;7.97;5.20;;;;;;;14.02;93.50;100856.44;694145;28;1451;-57
2021/08/20 01:34:39;;;;;;;8.60;5.28;;;;;;;14.02;92.96;100853.81;693088;28;1397;-54
2021/08/20 01:34:59;;;;;;;8.57;5.23;;;;;;;14.00;93.19;100858.19;693053;28;1795;-56
2021/08/20 01:35:22;;;;;;;7.55;5.05;;;;;;;13.98;92.52;100852.97;694811;28;1730;-52
2021/08/20 01:35:42;;;;;;;7.47;5.10;;;;;;;13.96;92.80;100853.00;694633;28;1457;-57
2021/08/20 01:36:03;;;;;;;7.77;5.13;;;;;;;14.00;92.94;100860.81;694090;28;1167;-55
2021/08/20 01:36:24;;;;;;;7.03;5.25;;;;;;;13.98;92.91;100855.59;695761;28;794;-58
2021/08/20 01:36:45;;;;;;;7.72;5.22;;;;;;;14.00;93.07;100858.19;694666;28;4410;-56
2021/08/20 01:37:05;;;;;;;9.00;5.43;;;;;;;14.00;93.27;100861.72;695169;28;1254;-55
2021/08/20 01:37:26;;;;;;;8.40;5.45;;;;;;;13.98;93.54;100854.75;696280;28;4345;-56
2021/08/20 01:37:48;;;;;;;6.90;5.25;;;;;;;13.96;93.11;100858.25;694796;28;1826;-53
2021/08/20 01:38:08;;;;;;;7.15;4.90;;;;;;;13.96;93.31;100855.63;696944;28;1271;-54
2021/08/20 01:38:29;;;;;;;7.07;4.90;;;;;;;13.96;93.20;100853.00;694916;28;1453;-56
2021/08/20 01:38:55;;;;;;;7.32;4.95;;;;;;;14.00;92.78;100847.69;697377;28;1390;-53
2021/08/20 01:39:16;;;;;;;7.82;5.35;;;;;;;14.01;93.29;100852.06;694039;28;1540;-54
2021/08/20 01:39:36;;;;;;;7.60;5.30;;;;;;;14.02;93.10;100851.16;692390;28;1240;-56
2021/08/20 01:39:57;;;;;;;8.03;5.10;;;;;;;14.04;93.32;100849.38;694395;28;4315;-54
2021/08/20 01:40:17;;;;;;;7.45;5.20;;;;;;;14.03;93.07;100845.03;694777;28;4141;-53
2021/08/20 01:40:37;;;;;;;7.20;5.00;;;;;;;14.05;93.41;100853.75;695956;28;4479;-55
2021/08/20 01:40:58;;;;;;;7.60;4.95;;;;;;;14.06;93.02;100850.22;692686;28;1557;-57
2021/08/20 01:41:20;;;;;;;6.30;4.60;;;;;;;14.08;93.20;100845.81;692127;28;1348;-53
2021/08/20 01:41:41;;;;;;;8.52;5.18;;;;;;;14.03;93.31;100850.28;692938;28;1159;-56